createdAt,value
2023-06-08T00:00:28.806Z,11.50
2023-06-08T00:03:34.015Z,11.90
2023-06-08T00:06:38.541Z,11.55
2023-06-08T00:09:42.285Z,11.35
2023-06-08T00:12:45.882Z,11.40
2023-06-08T00:15:48.578Z,11.20
2023-06-08T00:18:55.848Z,11.77
2023-06-08T00:22:00.320Z,11.85
2023-06-08T00:25:03.768Z,11.82
2023-06-08T00:28:06.535Z,11.27
2023-06-08T00:31:09.022Z,12.23
2023-06-08T00:34:12.425Z,11.65
2023-06-08T00:37:14.904Z,11.75
2023-06-08T00:40:17.623Z,12.18
2023-06-08T00:43:20.000Z,11.23
2023-06-08T00:46:25.852Z,12.15
2023-06-08T00:49:32.957Z,11.90
2023-06-08T00:52:38.582Z,11.48
2023-06-08T00:55:41.160Z,11.73
2023-06-08T00:58:48.159Z,11.90
2023-06-08T01:01:52.013Z,11.68
2023-06-08T01:04:55.366Z,12.13
2023-06-08T01:08:05.457Z,12.07
2023-06-08T01:11:24.070Z,11.88
2023-06-08T01:14:34.229Z,12.03
2023-06-08T01:17:48.459Z,12.57
2023-06-08T01:21:15.416Z,11.93
2023-06-08T01:24:21.386Z,11.68
2023-06-08T01:27:27.259Z,12.40
2023-06-08T01:30:29.975Z,12.43
2023-06-08T01:33:32.940Z,12.13
2023-06-08T01:36:45.595Z,12.40
2023-06-08T01:40:47.974Z,11.55
2023-06-08T01:43:52.522Z,11.52
2023-06-08T01:47:01.020Z,12.63
2023-06-08T01:50:07.181Z,11.95
2023-06-08T01:53:11.206Z,11.95
2023-06-08T01:56:15.126Z,12.18
2023-06-08T01:59:17.880Z,11.48
2023-06-08T02:02:21.063Z,12.27
2023-06-08T02:05:23.860Z,12.40
2023-06-08T02:08:26.257Z,13.15
2023-06-08T02:11:28.939Z,12.25
2023-06-08T02:14:31.361Z,12.50
2023-06-08T02:17:34.847Z,12.27
2023-06-08T02:20:37.514Z,11.68
2023-06-08T02:23:40.579Z,12.23
2023-06-08T02:26:44.034Z,11.68
2023-06-08T02:29:46.778Z,11.63
2023-06-08T02:32:49.457Z,12.43
2023-06-08T02:35:53.096Z,12.30
2023-06-08T02:38:55.496Z,12.60
2023-06-08T02:41:58.217Z,12.18
2023-06-08T02:45:00.765Z,11.80
2023-06-08T02:48:05.643Z,12.37
2023-06-08T02:51:08.176Z,12.82
2023-06-08T02:54:11.111Z,12.55
2023-06-08T02:57:13.517Z,12.37
2023-06-08T03:00:17.954Z,12.30
2023-06-08T03:03:24.354Z,13.10
2023-06-08T03:06:28.243Z,13.27
2023-06-08T03:09:32.092Z,12.25
2023-06-08T03:12:35.141Z,12.93
2023-06-08T03:15:38.894Z,13.27
2023-06-08T03:18:43.210Z,12.80
2023-06-08T03:21:45.717Z,12.37
2023-06-08T03:24:51.466Z,13.00
2023-06-08T03:27:55.953Z,13.13
2023-06-08T03:30:58.938Z,13.30
2023-06-08T03:34:02.813Z,13.10
2023-06-08T03:37:05.967Z,12.05
2023-06-08T03:40:11.038Z,12.43
2023-06-08T03:43:14.425Z,12.98
2023-06-08T03:46:17.589Z,13.68
2023-06-08T03:49:21.007Z,12.67
2023-06-08T03:52:24.883Z,13.40
2023-06-08T03:55:27.923Z,13.82
2023-06-08T03:58:31.109Z,13.93
2023-06-08T04:01:36.870Z,13.05
2023-06-08T04:04:40.775Z,12.63
2023-06-08T04:07:44.059Z,12.63
2023-06-08T04:10:46.787Z,13.02
2023-06-08T04:13:51.043Z,13.30
2023-06-08T04:16:54.552Z,13.15
2023-06-08T04:19:57.406Z,13.30
2023-06-08T04:23:00.824Z,13.65
2023-06-08T04:26:10.153Z,13.30
2023-06-08T04:29:13.723Z,12.98
2023-06-08T04:32:16.922Z,13.02
2023-06-08T04:35:19.767Z,12.33
2023-06-08T04:38:22.573Z,12.68
2023-06-08T04:41:27.016Z,13.27
2023-06-08T04:44:33.216Z,12.30
2023-06-08T04:47:37.095Z,11.10
2023-06-08T04:50:39.935Z,12.87
2023-06-08T04:53:43.750Z,13.70
2023-06-08T04:56:46.464Z,12.30
2023-06-08T04:59:50.634Z,12.30
2023-06-08T05:02:53.066Z,12.20
2023-06-08T05:05:56.545Z,11.67
2023-06-08T05:08:59.322Z,11.95
2023-06-08T05:12:02.020Z,12.98
2023-06-08T05:15:04.834Z,11.82
2023-06-08T05:18:07.645Z,12.77
2023-06-08T05:21:10.122Z,17.00
2023-06-08T05:24:12.946Z,12.57
2023-06-08T05:27:16.131Z,11.90
2023-06-08T05:30:18.798Z,12.85
2023-06-08T05:33:21.342Z,12.43
2023-06-08T05:36:24.237Z,11.63
2023-06-08T05:39:26.811Z,14.50
2023-06-08T05:42:32.272Z,12.60
2023-06-08T05:45:34.764Z,14.43
2023-06-08T05:48:38.156Z,14.50
2023-06-08T05:51:40.755Z,15.67
2023-06-08T05:54:43.663Z,15.43
2023-06-08T05:57:46.222Z,14.00
2023-06-08T06:00:48.897Z,17.80
2023-06-08T06:03:52.110Z,15.48
2023-06-08T06:06:54.749Z,14.97
2023-06-08T06:09:57.400Z,15.85
2023-06-08T06:12:59.960Z,15.70
2023-06-08T06:16:02.759Z,15.23
2023-06-08T06:19:05.191Z,15.68
2023-06-08T06:22:09.956Z,15.93
2023-06-08T06:25:12.379Z,17.08
2023-06-08T06:28:15.079Z,16.90
2023-06-08T06:31:17.658Z,17.12
2023-06-08T06:34:21.302Z,16.83
2023-06-08T06:37:23.800Z,16.77
2023-06-08T06:40:26.607Z,17.95
2023-06-08T06:43:29.104Z,16.17
2023-06-08T06:46:33.383Z,16.65
2023-06-08T06:49:39.370Z,18.17
2023-06-08T06:52:44.710Z,17.73
2023-06-08T06:55:47.293Z,17.45
2023-06-08T06:58:50.850Z,20.05
2023-06-08T07:01:53.353Z,17.73
2023-06-08T07:05:00.326Z,18.33
2023-06-08T07:08:02.805Z,17.43
2023-06-08T07:11:05.814Z,18.23
2023-06-08T07:14:08.639Z,18.15
2023-06-08T07:17:13.125Z,17.58
2023-06-08T07:20:15.811Z,18.50
2023-06-08T07:23:31.606Z,18.50
2023-06-08T07:26:41.280Z,18.50
2023-06-08T07:29:43.988Z,16.85
2023-06-08T07:32:47.538Z,18.27
2023-06-08T07:35:50.392Z,18.20
2023-06-08T07:38:52.840Z,17.07
2023-06-08T07:41:55.669Z,17.15
2023-06-08T07:44:58.044Z,17.60
2023-06-08T07:48:00.755Z,15.93
2023-06-08T07:51:03.285Z,16.65
2023-06-08T07:54:06.314Z,17.17
2023-06-08T07:57:09.070Z,16.17
2023-06-08T08:00:13.065Z,16.25
2023-06-08T08:03:15.401Z,16.40
2023-06-08T08:06:18.771Z,16.20
2023-06-08T08:09:21.310Z,16.50
2023-06-08T08:12:24.557Z,16.60
2023-06-08T08:15:27.795Z,16.90
2023-06-08T08:18:30.618Z,17.40
2023-06-08T08:21:33.272Z,16.62
2023-06-08T08:24:37.153Z,16.67
2023-06-08T08:27:39.509Z,17.45
2023-06-08T08:30:42.927Z,16.52
2023-06-08T08:33:45.803Z,17.25
2023-06-08T08:36:48.522Z,17.65
2023-06-08T08:39:50.888Z,19.40
2023-06-08T08:43:15.507Z,17.15
2023-06-08T08:46:22.313Z,16.23
2023-06-08T08:49:25.975Z,17.67
2023-06-08T08:52:30.422Z,17.83
2023-06-08T08:55:36.197Z,17.77
2023-06-08T08:58:39.760Z,17.33
2023-06-08T09:01:42.735Z,17.52
2023-06-08T09:04:45.897Z,15.80
2023-06-08T09:07:49.000Z,16.27
2023-06-08T09:11:12.723Z,17.03
2023-06-08T09:14:15.491Z,16.45
2023-06-08T09:17:39.252Z,15.20
2023-06-08T09:20:42.779Z,14.80
2023-06-08T09:23:45.540Z,15.05
2023-06-08T09:26:49.034Z,13.47
2023-06-08T09:29:51.714Z,13.15
2023-06-08T09:32:54.589Z,14.05
2023-06-08T09:35:59.768Z,12.57
2023-06-08T09:39:04.611Z,12.10
2023-06-08T09:42:07.654Z,11.80
2023-06-08T09:45:13.949Z,11.35
2023-06-08T09:48:16.389Z,10.48
2023-06-08T09:51:20.956Z,10.88
2023-06-08T09:54:23.459Z,10.55
2023-06-08T09:57:29.032Z,10.33
2023-06-08T10:00:31.716Z,12.57
2023-06-08T10:03:49.141Z,11.90
2023-06-08T10:06:58.677Z,11.90
2023-06-08T10:10:13.492Z,12.65
2023-06-08T10:13:16.911Z,13.17
2023-06-08T10:16:21.708Z,12.55
2023-06-08T10:19:24.937Z,11.50
2023-06-08T10:22:28.283Z,12.18
2023-06-08T10:25:31.731Z,12.48
2023-06-08T10:28:35.208Z,12.13
2023-06-08T10:31:41.487Z,12.10
2023-06-08T10:34:44.224Z,11.75
2023-06-08T10:37:47.286Z,11.38
2023-06-08T10:40:52.321Z,11.10
2023-06-08T10:44:01.383Z,11.50
2023-06-08T10:47:13.518Z,13.52
2023-06-08T10:50:19.267Z,12.02
2023-06-08T10:53:56.524Z,11.57
2023-06-08T10:57:15.392Z,9.30
2023-06-08T11:00:29.499Z,9.17
2023-06-08T11:03:46.419Z,11.38
2023-06-08T11:06:49.165Z,14.13
2023-06-08T11:09:51.936Z,11.25
2023-06-08T11:12:58.087Z,10.32
2023-06-08T11:16:02.070Z,9.33
2023-06-08T11:19:10.256Z,9.77
2023-06-08T11:22:13.266Z,10.45
2023-06-08T11:25:19.486Z,9.73
2023-06-08T11:28:22.480Z,10.13
2023-06-08T11:31:32.678Z,8.90
2023-06-08T11:34:35.235Z,8.73
2023-06-08T11:37:38.070Z,8.50
2023-06-08T11:40:43.347Z,8.70
2023-06-08T11:43:49.477Z,8.98
2023-06-08T11:46:52.354Z,9.63
2023-06-08T11:49:56.302Z,10.80
2023-06-08T11:53:01.832Z,9.32
2023-06-08T11:56:05.088Z,8.50
2023-06-08T11:59:07.617Z,9.32
2023-06-08T12:02:10.802Z,8.83
2023-06-08T12:05:16.748Z,8.10
2023-06-08T12:08:20.757Z,8.23
2023-06-08T12:11:26.274Z,7.45
2023-06-08T12:14:35.544Z,8.32
2023-06-08T12:17:40.750Z,7.50
2023-06-08T12:20:44.278Z,8.02
2023-06-08T12:23:47.165Z,8.93
2023-06-08T12:26:49.950Z,7.72
2023-06-08T12:29:52.722Z,7.82
2023-06-08T12:32:56.935Z,7.60
2023-06-08T12:35:59.889Z,7.05
2023-06-08T12:39:02.509Z,7.55
2023-06-08T12:42:05.737Z,8.48
2023-06-08T12:45:08.964Z,9.00
2023-06-08T12:48:12.022Z,8.93
2023-06-08T12:51:18.023Z,9.70
2023-06-08T12:54:21.080Z,8.52
2023-06-08T12:57:23.618Z,8.60
2023-06-08T13:00:26.809Z,8.50
2023-06-08T13:03:29.238Z,7.37
2023-06-08T13:06:32.327Z,10.38
2023-06-08T13:09:34.834Z,8.80
2023-06-08T13:12:37.778Z,8.50
2023-06-08T13:15:40.546Z,8.52
2023-06-08T13:18:43.530Z,9.50
2023-06-08T13:21:46.180Z,7.60
2023-06-08T13:24:50.219Z,8.15
2023-06-08T13:27:53.061Z,7.80
2023-06-08T13:30:55.801Z,7.60
2023-06-08T13:33:58.197Z,6.67
2023-06-08T13:37:02.353Z,8.35
2023-06-08T13:40:06.102Z,6.85
2023-06-08T13:43:11.241Z,7.57
2023-06-08T13:46:13.857Z,6.87
2023-06-08T13:49:16.820Z,5.67
2023-06-08T13:52:19.165Z,6.10
2023-06-08T13:55:21.745Z,6.30
2023-06-08T13:58:24.222Z,6.55
2023-06-08T14:01:28.606Z,7.82
2023-06-08T14:04:31.370Z,7.67
2023-06-08T14:07:33.836Z,8.18
2023-06-08T14:10:36.517Z,7.65
2023-06-08T14:13:38.961Z,6.65
2023-06-08T14:16:42.542Z,7.72
2023-06-08T14:19:47.577Z,7.07
2023-06-08T14:22:50.959Z,7.40
2023-06-08T14:25:53.303Z,8.00
2023-06-08T14:28:56.434Z,6.97
2023-06-08T14:31:58.915Z,6.40
2023-06-08T14:35:01.757Z,6.50
2023-06-08T14:38:04.721Z,6.87
2023-06-08T14:41:07.404Z,5.97
2023-06-08T14:44:09.906Z,6.18
2023-06-08T14:47:12.825Z,7.03
2023-06-08T14:50:15.288Z,6.80
2023-06-08T14:53:18.125Z,6.90
2023-06-08T14:56:20.570Z,7.53
2023-06-08T14:59:23.310Z,6.62
2023-06-08T15:02:25.763Z,6.65
2023-06-08T15:05:31.250Z,7.63
2023-06-08T15:08:33.636Z,7.18
2023-06-08T15:11:36.438Z,6.47
2023-06-08T15:14:39.035Z,6.62
2023-06-08T15:17:41.724Z,8.52
2023-06-08T15:20:44.221Z,6.77
2023-06-08T15:23:47.880Z,6.37
2023-06-08T15:26:52.137Z,6.62
2023-06-08T15:29:54.818Z,6.57
2023-06-08T15:32:57.228Z,6.20
2023-06-08T15:36:00.013Z,6.70
2023-06-08T15:39:04.555Z,5.47
2023-06-08T15:42:08.012Z,5.50
2023-06-08T15:45:11.088Z,5.53
2023-06-08T15:48:14.267Z,6.47
2023-06-08T15:51:16.823Z,5.97
2023-06-08T15:54:19.545Z,4.93
2023-06-08T15:57:21.995Z,4.35
2023-06-08T16:00:24.938Z,5.53
2023-06-08T16:03:27.710Z,4.97
2023-06-08T16:06:30.167Z,5.37
2023-06-08T16:09:32.876Z,4.90
2023-06-08T16:12:35.463Z,5.68
2023-06-08T16:15:38.185Z,5.93
2023-06-08T16:18:41.869Z,5.05
2023-06-08T16:21:47.516Z,4.83
2023-06-08T16:24:49.958Z,5.65
2023-06-08T16:27:52.970Z,4.75
2023-06-08T16:30:56.216Z,4.72
2023-06-08T16:33:58.939Z,5.10
2023-06-08T16:37:01.722Z,5.23
2023-06-08T16:40:05.297Z,5.03
2023-06-08T16:43:09.175Z,5.40
2023-06-08T16:46:12.620Z,4.47
2023-06-08T16:49:15.718Z,4.57
2023-06-08T16:52:18.402Z,4.73
2023-06-08T16:55:21.046Z,5.00
2023-06-08T16:58:24.366Z,5.32
2023-06-08T17:01:26.916Z,5.53
2023-06-08T17:04:29.797Z,5.37
2023-06-08T17:07:32.417Z,5.50
2023-06-08T17:10:36.828Z,5.57
2023-06-08T17:13:41.426Z,5.12
2023-06-08T17:16:47.683Z,5.93
2023-06-08T17:19:50.962Z,5.75
2023-06-08T17:22:53.705Z,5.13
2023-06-08T17:25:56.211Z,6.07
2023-06-08T17:28:58.979Z,5.40
2023-06-08T17:32:01.474Z,8.63
2023-06-08T17:35:04.695Z,6.20
2023-06-08T17:38:08.871Z,5.50
2023-06-08T17:41:11.990Z,5.80
2023-06-08T17:44:14.691Z,6.10
2023-06-08T17:47:17.378Z,6.55
2023-06-08T17:50:19.837Z,6.43
2023-06-08T17:53:22.492Z,6.27
2023-06-08T17:56:25.405Z,5.87
2023-06-08T17:59:28.114Z,6.12
2023-06-08T18:02:31.629Z,5.85
2023-06-08T18:05:35.330Z,5.80
2023-06-08T18:08:37.824Z,5.93
2023-06-08T18:11:41.052Z,6.05
2023-06-08T18:14:43.525Z,6.90
2023-06-08T18:17:46.300Z,5.75
2023-06-08T18:20:48.802Z,6.50
2023-06-08T18:23:57.442Z,6.80
2023-06-08T18:26:59.967Z,6.55
2023-06-08T18:30:08.449Z,6.40
2023-06-08T18:33:11.011Z,6.50
2023-06-08T18:36:13.765Z,6.75
2023-06-08T18:39:16.533Z,8.67
2023-06-08T18:42:19.358Z,6.43
2023-06-08T18:45:21.771Z,6.18
2023-06-08T18:48:24.543Z,6.90
2023-06-08T18:51:27.290Z,6.93
2023-06-08T18:54:31.202Z,6.77
2023-06-08T18:57:34.150Z,6.90
2023-06-08T19:00:36.928Z,9.00
2023-06-08T19:03:39.552Z,6.25
2023-06-08T19:06:42.409Z,6.55
2023-06-08T19:09:45.693Z,7.30
2023-06-08T19:12:48.487Z,6.85
2023-06-08T19:15:50.822Z,7.22
2023-06-08T19:18:53.695Z,7.03
2023-06-08T19:21:56.190Z,7.12
2023-06-08T19:24:59.864Z,7.07
2023-06-08T19:28:02.354Z,6.72
2023-06-08T19:31:06.100Z,7.35
2023-06-08T19:34:08.549Z,7.03
2023-06-08T19:37:11.788Z,6.87
2023-06-08T19:40:14.340Z,7.53
2023-06-08T19:43:17.061Z,8.00
2023-06-08T19:46:23.601Z,7.20
2023-06-08T19:49:26.682Z,8.00
2023-06-08T19:52:29.282Z,7.25
2023-06-08T19:55:32.042Z,7.43
2023-06-08T19:58:34.954Z,8.57
2023-06-08T20:01:37.999Z,7.53
2023-06-08T20:04:40.970Z,7.82
2023-06-08T20:07:44.126Z,7.30
2023-06-08T20:10:46.913Z,7.93
2023-06-08T20:13:49.567Z,7.55
2023-06-08T20:16:53.464Z,7.32
2023-06-08T20:19:56.194Z,7.05
2023-06-08T20:22:58.946Z,6.93
2023-06-08T20:26:01.365Z,7.43
2023-06-08T20:29:04.405Z,7.60
2023-06-08T20:32:07.568Z,7.37
2023-06-08T20:35:10.566Z,8.30
2023-06-08T20:38:12.918Z,8.43
2023-06-08T20:41:16.067Z,7.63
2023-06-08T20:44:18.490Z,7.80
2023-06-08T20:47:21.194Z,7.78
2023-06-08T20:50:23.532Z,7.37
2023-06-08T20:53:26.403Z,7.20
2023-06-08T20:56:28.792Z,8.23
2023-06-08T20:59:32.228Z,7.68
2023-06-08T21:02:36.331Z,7.70
2023-06-08T21:05:42.700Z,8.07
2023-06-08T21:08:45.059Z,9.75
2023-06-08T21:11:50.131Z,7.40
2023-06-08T21:14:55.484Z,8.00
2023-06-08T21:17:59.617Z,7.50
2023-06-08T21:21:03.065Z,7.78
2023-06-08T21:24:06.336Z,8.10
2023-06-08T21:27:08.769Z,8.00
2023-06-08T21:30:11.690Z,8.32
2023-06-08T21:33:14.402Z,9.95
2023-06-08T21:36:17.264Z,8.23
2023-06-08T21:39:19.669Z,8.07
2023-06-08T21:42:22.336Z,8.10
2023-06-08T21:45:24.827Z,8.32
2023-06-08T21:48:27.698Z,8.90
2023-06-08T21:51:30.214Z,9.20
2023-06-08T21:54:32.883Z,9.48
2023-06-08T21:57:35.718Z,10.33
2023-06-08T22:00:38.432Z,9.25
2023-06-08T22:03:41.493Z,9.75
2023-06-08T22:06:44.343Z,10.52
2023-06-08T22:09:46.996Z,10.63
2023-06-08T22:12:50.269Z,12.20
2023-06-08T22:15:53.405Z,11.80
2023-06-08T22:18:55.873Z,11.45
2023-06-08T22:21:59.194Z,11.10
2023-06-08T22:25:01.572Z,12.30
2023-06-08T22:28:04.643Z,11.20
2023-06-08T22:31:07.967Z,11.40
2023-06-08T22:34:10.752Z,11.02
2023-06-08T22:37:13.224Z,10.75
2023-06-08T22:40:15.982Z,10.77
2023-06-08T22:43:18.723Z,10.73
2023-06-08T22:46:21.747Z,11.73
2023-06-08T22:49:24.105Z,11.50
2023-06-08T22:52:29.763Z,10.18
2023-06-08T22:55:32.156Z,10.35
2023-06-08T22:58:34.820Z,10.00
2023-06-08T23:01:37.402Z,9.98
2023-06-08T23:04:46.204Z,8.60
2023-06-08T23:07:49.937Z,9.20
2023-06-08T23:10:59.078Z,10.95
2023-06-08T23:14:04.711Z,9.47
2023-06-08T23:17:11.203Z,9.48
2023-06-08T23:20:13.759Z,9.82
2023-06-08T23:23:16.393Z,9.52
2023-06-08T23:26:18.800Z,9.23
2023-06-08T23:29:21.488Z,10.30
2023-06-08T23:32:24.121Z,10.02
2023-06-08T23:35:26.841Z,10.68
2023-06-08T23:38:29.291Z,10.63
2023-06-08T23:41:32.296Z,10.30
2023-06-08T23:44:35.310Z,11.23
2023-06-08T23:47:39.187Z,11.00
2023-06-08T23:50:41.661Z,11.80
2023-06-08T23:53:44.373Z,12.05
2023-06-08T23:56:46.785Z,12.10
2023-06-08T23:59:49.448Z,13.03
